Stations météo

réclame
Mon MeteoGroup
Le Puy, France (7471): Température de l'air & dewpoint: 14.10.2018 04:00:00 - 20.10.2018 04:00:00 (CEST)Le Puy, France (7471): Température de l'air 5cm: 14.10.2018 04:00:00 - 20.10.2018 04:00:00 (CEST)Le Puy, France (7471): Température de l'air -20cm & Température de l'air -100cm: 14.10.2018 04:00:00 - 20.10.2018 04:00:00 (CEST)Le Puy, France (7471): Vitesse du vent & gusts: 14.10.2018 04:00:00 - 20.10.2018 04:00:00 (CEST)Le Puy, France (7471): Direction du vent: 14.10.2018 04:00:00 - 20.10.2018 04:00:00 (CEST)Le Puy, France (7471): visibility: 14.10.2018 04:00:00 - 20.10.2018 04:00:00 (CEST)Le Puy, France (7471): Ensoleillement: 14.10.2018 04:00:00 - 20.10.2018 04:00:00 (CEST)Le Puy, France (7471): Quantités de précipitations: 14.10.2018 04:00:00 - 20.10.2018 04:00:00 (CEST)
Date & Time tt [°C] td [°C] tt 5cm [°C] tt -20cm [°C] tt -100cm [°C] ff [km/h] ff [knt] fx [km/h] fx [knt] dd vv [km] sd [min] rr [mm]
20.10.2018 04:00:00 5,4 4,2 2,1 13,8 14,7 0 0 10 5 N 3,5 0 0,0
20.10.2018 03:00:00 6,8 5,4 4,6 13,9 14,7 2 1 8 5 WSW 7 0 0,0
20.10.2018 02:00:00 7,1 5,6 5,2 13,9 14,7 5 3 8 4 SW 7 0 0,0
20.10.2018 01:00:00 7,6 5,7 4,9 13,9 14,7 4 2 6 4 SW 9 0 0,0
20.10.2018 00:00:00 8,0 5,6 5,8 14,0 14,8 0 0 11 6 N 11 0 0,0
19.10.2018 23:00:00 9,0 6,4 7,1 13,9 14,8 6 3 9 5 SSW 14 0 0,0
19.10.2018 22:00:00 10,0 6,9 8,1 13,9 14,8 5 3 8 4 SW 15 0 0,0
19.10.2018 21:00:00 10,9 7,0 8,9 13,8 14,8 5 3 7 4 W 18 0 0,0
19.10.2018 20:00:00 13,2 7,4 10,4 13,7 14,8 2 1 18 10 W 20 0 0,0
19.10.2018 19:00:00 16,0 7,2 12,6 13,6 14,8 0 0 13 7 N 1,5 22 0,0
19.10.2018 18:00:00 20,2 6,9 20,9 13,5 14,8 4 2 19 10 NE 20 39 0,0
19.10.2018 17:00:00 21,4 7,2 23,2 13,3 14,8 6 3 14 8 NW 20 55 0,0
19.10.2018 16:00:00 21,1 6,6 25,8 13,2 14,7 3 2 14 8 N 18 60 0,0
19.10.2018 15:00:00 21,1 6,2 26,9 13,2 14,8 4 2 9 5 E 18 60 0,0
19.10.2018 14:00:00 19,6 6,3 25,4 13,2 14,8 4 2 9 5 SSE 20 60 0,0
19.10.2018 13:00:00 17,3 6,5 22,1 13,2 14,8 4 2 9 5 E 17 60 0,0
19.10.2018 12:00:00 15,1 8,3 20,4 13,3 14,8 3 1 10 5 E 17 60 0,0
19.10.2018 11:00:00 11,2 8,6 16,2 13,4 14,8 0 0 6 4 N 13 60 0,0
19.10.2018 10:00:00 8,1 7,0 6,8 13,5 14,8 0 0 4 2 N 9 60 0,0
19.10.2018 09:00:00 5,0 4,3 1,0 13,6 14,8 2 1 4 2 NW 3,2 22 0,0
19.10.2018 08:00:00 4,5 3,6 0,6 13,7 14,8 2 1 6 3 SSW 6 0 0,0
19.10.2018 07:00:00 5,1 4,1 1,3 13,8 14,8 3 2 18 10 WNW 7 0 0,0
19.10.2018 06:00:00 4,9 4,0 1,1 13,9 14,8 2 1 7 4 WSW 7 0 0,0
19.10.2018 05:00:00 5,5 4,5 2,6 14,0 14,8 3 2 6 3 SW 7 0 0,0
19.10.2018 04:00:00 5,8 4,8 2,3 14,1 14,8 0 0 3 2 N 8 0 0,0
19.10.2018 03:00:00 6,3 5,1 2,8 14,1 14,8 0 0 4 2 N 7 0 0,0
19.10.2018 02:00:00 6,9 5,5 3,4 14,2 14,8 0 0 4 2 N 7 0 0,0
19.10.2018 01:00:00 7,7 6,0 4,8 14,3 14,8 2 1 7 4 W 10 0 0,0
19.10.2018 00:00:00 8,8 6,8 7,1 14,3 14,8 6 3 10 5 WSW 11 0 0,0
18.10.2018 23:00:00 8,5 6,5 7,2 14,3 14,8 3 2 8 4 W 10 0 0,0
18.10.2018 22:00:00 9,2 7,0 7,5 14,2 14,8 5 3 6 4 WSW 9 0 0,0
18.10.2018 21:00:00 10,2 7,4 8,2 14,2 14,8 4 2 6 3 WSW 9 0 0,0
18.10.2018 20:00:00 11,2 7,7 9,0 14,1 14,8 3 2 6 3 WSW 15 0 0,0
18.10.2018 19:00:00 13,8 7,8 12,1 14,0 14,8 4 2 11 6 WSW 20 1 0,0
18.10.2018 18:00:00 15,8 7,5 15,9 13,9 14,8 6 3 16 9 WSW 20 0 0,0
18.10.2018 17:00:00 17,6 8,4 19,0 13,8 14,8 9 5 17 9 WSW 20 2 0,0
18.10.2018 16:00:00 19,3 6,4 25,6 13,7 14,8 3 2 12 6 NNE 19 60 0,0
18.10.2018 15:00:00 19,0 7,1 23,6 13,6 14,8 2 1 8 5 SSW 20 56 0,0
18.10.2018 14:00:00 17,8 7,2 21,4 13,6 14,8 4 2 11 6 NW 20 47 0,0
18.10.2018 13:00:00 16,7 7,1 18,9 13,6 14,8 2 1 8 4 S 20 9 0,0
18.10.2018 12:00:00 15,2 8,0 17,9 13,7 14,8 0 0 11 6 N 20 30 0,0
18.10.2018 11:00:00 12,8 8,1 14,7 13,7 14,8 2 1 6 3 E 20 11 0,0
18.10.2018 10:00:00 11,2 8,4 10,9 13,8 14,8 0 0 5 3 N 17 9 0,0
18.10.2018 09:00:00 9,4 7,5 5,6 13,9 14,8 0 0 6 4 N 18 10 0,0
18.10.2018 08:00:00 8,4 6,4 6,6 13,9 14,8 4 2 6 4 WNW 18 0 0,0
18.10.2018 07:00:00 8,4 6,4 5,4 13,9 14,8 0 0 11 6 N 12 0 0,0
18.10.2018 06:00:00 8,0 5,8 5,4 14,0 14,8 0 0 5 3 N 13 0 0,0
18.10.2018 05:00:00 9,2 7,0 7,4 14,1 14,8 4 2 5 3 SW 15 0 0,0
18.10.2018 04:00:00 9,2 6,6 7,5 14,1 14,8 0 0 4 2 N 14 0 0,0
18.10.2018 03:00:00 10,1 7,3 8,2 14,1 14,8 2 1 4 2 W 20 0 0,0
18.10.2018 02:00:00 10,9 7,6 10,0 14,2 14,8 5 3 9 5 SW 20 0 0,0
18.10.2018 01:00:00 10,5 7,4 8,8 14,2 14,8 4 2 11 6 SW 19 0 0,0
18.10.2018 00:00:00 9,7 6,8 8,0 14,2 14,8 8 5 10 5 SW 16 0 0,0
17.10.2018 23:00:00 10,2 6,9 8,4 14,2 14,8 6 3 10 5 WSW 17 0 0,0
17.10.2018 22:00:00 11,1 7,4 9,4 14,2 14,8 6 3 8 4 SW 18 0 0,0
17.10.2018 21:00:00 12,1 7,4 10,4 14,1 14,8 5 3 7 4 SW 18 0 0,0
17.10.2018 20:00:00 14,1 8,3 12,7 14,0 14,8 4 2 7 4 W 20 0 0,0
17.10.2018 19:00:00 15,4 7,7 14,4 13,9 14,8 3 2 8 5 WSW 17 0 0,0
17.10.2018 18:00:00 16,2 6,3 15,4 13,8 14,9 5 3 13 7 NNW 20 0 0,0
17.10.2018 17:00:00 17,8 5,4 18,4 13,7 14,8 8 5 16 9 NE 20 0 0,0
17.10.2018 16:00:00 18,4 6,6 21,2 13,7 14,8 8 5 16 8 ENE 20 7 0,0
17.10.2018 15:00:00 18,0 7,7 20,7 13,6 14,8 6 4 15 8 ENE 20 5 0,0
17.10.2018 14:00:00 17,1 8,0 20,0 13,6 14,8 8 4 15 8 E 18 2 0,0
17.10.2018 13:00:00 16,6 8,3 19,5 13,6 14,8 6 3 12 6 ESE 18 29 0,0
17.10.2018 12:00:00 16,7 8,9 22,2 13,7 14,9 5 3 10 5 SE 18 57 0,0
17.10.2018 11:00:00 14,6 8,8 19,7 13,7 14,8 0 0 6 3 N 18 60 0,0
17.10.2018 10:00:00 11,1 8,1 12,0 13,8 14,9 2 1 4 2 NNE 15 56 0,0
17.10.2018 09:00:00 7,8 6,6 4,5 13,9 14,9 2 1 7 4 WSW 14 35 0,0
17.10.2018 08:00:00 6,3 5,1 3,4 14,0 14,9 5 3 7 4 SW 7 0 0,0
17.10.2018 07:00:00 7,0 5,5 4,5 14,0 14,9 4 2 18 10 WSW 15 0 0,0
17.10.2018 06:00:00 7,6 5,9 5,2 14,1 14,9 5 3 9 5 WSW 16 0 0,0
17.10.2018 05:00:00 8,6 6,7 6,5 14,1 14,9 0 0 4 2 N 17 0 0,0
17.10.2018 04:00:00 9,2 7,0 6,9 14,2 14,9 0 0 5 3 N 20 0 0,0
17.10.2018 03:00:00 8,5 6,3 6,5 14,2 14,8 0 0 7 4 N 20 0 0,0
17.10.2018 02:00:00 9,1 6,7 6,5 14,2 14,9 6 3 8 4 SW 20 0 0,0
17.10.2018 01:00:00 10,7 7,2 8,4 14,2 14,9 4 2 10 5 W 20 0 0,0
17.10.2018 00:00:00 12,4 8,9 10,6 14,2 14,9 0 0 6 4 N 20 0 0,0
16.10.2018 23:00:00 13,4 8,7 12,2 14,2 14,9 2 1 8 5 W 20 0 0,0
16.10.2018 22:00:00 13,6 8,6 12,0 14,1 14,9 4 2 6 4 WSW 20 0 0,0
16.10.2018 21:00:00 13,6 8,2 12,2 14,1 14,9 0 0 11 6 N 20 0 0,0
16.10.2018 20:00:00 15,0 8,2 14,0 13,9 14,9 4 2 18 10 W 20 0 0,0
16.10.2018 19:00:00 15,3 8,5 14,5 13,8 14,9 6 3 11 6 SSW 20 0 0,0
16.10.2018 18:00:00 17,5 7,5 18,2 13,8 14,9 8 5 14 8 SSW 20 38 0,0
16.10.2018 17:00:00 17,8 7,5 19,4 13,6 14,9 7 4 16 8 S 20 11 0,0
16.10.2018 16:00:00 18,3 7,4 21,2 13,5 14,9 7 4 21 11 SSE 19 48 0,0
16.10.2018 15:00:00 18,1 8,4 20,8 13,5 14,9 8 4 17 9 SSE 19 7 0,0
16.10.2018 14:00:00 17,6 8,4 20,5 13,5 14,9 8 4 22 12 S 20 20 0,0
16.10.2018 13:00:00 18,0 10,1 20,6 13,4 14,9 3 2 14 7 S 19 29 0,0
16.10.2018 12:00:00 16,1 9,7 16,7 13,5 14,9 2 1 9 5 S 20 28 0,0
16.10.2018 11:00:00 13,4 9,3 15,2 13,5 14,9 3 2 10 5 N 19 0 0,0
16.10.2018 10:00:00 12,5 9,0 8,7 13,6 14,9 0 0 7 4 N 18 23 0,0
16.10.2018 09:00:00 9,1 7,5 6,7 13,6 14,9 3 2 9 5 WNW 14 8 0,0
16.10.2018 08:00:00 9,1 7,0 6,6 13,6 14,9 0 0 15 8 N 7 0 0,0
16.10.2018 07:00:00 9,5 7,1 7,8 13,7 14,9 6 3 9 5 SSW 20 0 0,0
16.10.2018 06:00:00 10,1 7,3 8,3 13,7 14,9 4 2 5 3 SW 20 0 0,0
16.10.2018 05:00:00 10,6 6,9 8,4 13,8 14,9 3 1 15 8 NNE 20 0 0,0
16.10.2018 04:00:00 10,9 7,2 7,9 13,8 14,9 5 3 11 6 SE 20 0 0,0
16.10.2018 03:00:00 12,2 7,3 10,6 13,8 14,9 4 2 24 13 SSE 20 0 0,0
16.10.2018 02:00:00 12,7 8,2 10,6 13,8 14,9 9 5 16 8 ESE 20 0 0,0
16.10.2018 01:00:00 12,4 8,1 11,6 13,9 14,9 5 3 24 13 E 20 0 0,0
16.10.2018 00:00:00 12,8 8,1 12,3 13,9 15,0 10 5 24 13 SE 20 0 0,0
15.10.2018 23:00:00 12,8 7,7 12,3 13,9 14,9 7 4 20 11 SE 20 0 0,0
15.10.2018 22:00:00 13,0 7,0 12,5 13,9 14,9 10 5 35 19 ESE 20 0 0,0
15.10.2018 21:00:00 13,5 6,6 12,9 13,9 14,9 13 7 24 13 SE 20 0 0,0
15.10.2018 20:00:00 13,5 6,4 12,8 13,9 14,9 10 5 31 17 SSE 20 0 0,0
15.10.2018 19:00:00 14,1 6,2 13,6 13,9 14,9 19 10 39 21 SE 20 0 0,0
15.10.2018 18:00:00 14,1 6,7 13,9 13,9 14,9 13 7 23 12 SSE 20 0 0,0
15.10.2018 17:00:00 14,4 6,7 14,9 13,9 14,9 12 7 33 18 SE 20 0 0,0
15.10.2018 16:00:00 13,9 7,4 13,8 13,9 14,9 9 5 43 23 ESE 20 0 0,0
15.10.2018 15:00:00 13,4 6,9 13,6 14,0 14,9 19 10 51 27 SE 20 0 0,0
15.10.2018 14:00:00 13,4 6,5 13,1 14,0 14,9 28 15 67 36 SE 20 0 0,0
15.10.2018 13:00:00 14,5 5,8 12,2 14,0 14,9 30 16 63 34 SE 20 0 0,0
15.10.2018 12:00:00 14,7 6,3 12,5 14,1 14,9 23 13 52 28 SE 20 0 0,0
15.10.2018 11:00:00 15,0 6,3 14,7 14,1 15,0 24 13 52 28 SE 20 0 0,0
15.10.2018 10:00:00 14,7 6,8 13,9 14,1 14,9 24 13 50 27 SE 20 0 0,0
15.10.2018 09:00:00 14,1 7,2 13,0 14,2 15,0 22 12 43 23 SE 20 0 0,0
15.10.2018 08:00:00 13,8 6,9 13,3 14,2 15,0 19 11 42 23 SE 20 0 0,0
15.10.2018 07:00:00 13,9 6,3 12,3 14,3 15,0 21 12 39 21 SE 20 0 0,0
15.10.2018 06:00:00 13,4 6,3 12,5 14,3 14,9 11 6 47 26 SE 20 0 0,0
15.10.2018 05:00:00 13,5 6,4 12,4 14,3 14,9 14 7 38 20 SE 20 0 0,0
15.10.2018 04:00:00 13,6 6,7 12,4 14,4 14,9 17 9 39 21 SSE 20 0 0,0
15.10.2018 03:00:00 13,4 6,9 12,1 14,4 15,0 13 7 41 22 SSE 20 0 0,0
15.10.2018 02:00:00 13,3 6,9 12,3 14,4 15,0 18 10 48 26 SSE 20 0 0,0
15.10.2018 01:00:00 13,6 7,4 12,7 14,4 15,0 18 10 48 26 SSE 20 0 0,0
15.10.2018 00:00:00 13,8 6,6 13,0 14,4 15,0 26 14 47 26 SSE 20 0 0,0
14.10.2018 23:00:00 13,8 6,6 13,1 14,4 15,0 19 10 40 22 SSE 20 0 0,0
14.10.2018 22:00:00 14,2 7,5 13,8 14,4 15,0 24 13 49 26 SSE 20 0 0,0
14.10.2018 21:00:00 14,5 8,4 14,2 14,4 15,0 24 13 42 23 SSE 20 0 0,0
14.10.2018 20:00:00 14,6 8,8 14,3 14,3 14,9 16 9 29 16 SSE 20 0 0,0
14.10.2018 19:00:00 14,5 8,7 14,3 14,3 15,0 16 8 48 26 SSE 20 0 0,0
14.10.2018 18:00:00 15,2 8,4 15,3 14,2 14,9 29 15 52 28 SSE 20 1 0,0
14.10.2018 17:00:00 16,0 8,5 16,5 14,2 14,9 36 19 71 39 SSE 20 28 0,0
14.10.2018 16:00:00 17,0 8,7 18,2 14,2 15,0 32 18 78 42 SSE 20 43 0,0
14.10.2018 15:00:00 16,6 9,0 17,4 14,1 15,0 36 20 63 34 SSE 20 10 0,0
14.10.2018 14:00:00 16,2 9,6 16,7 14,1 15,0 28 15 54 29 SSE 20 2 0,0
14.10.2018 13:00:00 17,1 9,3 18,4 14,2 15,0 27 15 72 39 SSE 20 44 0,0
14.10.2018 12:00:00 16,5 8,9 16,2 14,2 15,0 34 18 61 33 SSE 20 47 0,0
14.10.2018 11:00:00 14,6 8,8 15,4 14,3 14,9 26 14 58 32 SSE 20 8 0,0
14.10.2018 10:00:00 14,2 8,2 13,3 14,4 15,0 26 14 57 31 SSE 20 12 0,0
14.10.2018 09:00:00 13,2 7,6 11,6 14,4 15,0 22 12 49 26 SSE 20 8 0,0
14.10.2018 08:00:00 12,5 6,7 11,2 14,5 15,0 22 12 48 26 SSE 20 0 0,0
14.10.2018 07:00:00 12,5 6,5 11,3 14,5 15,0 18 10 46 25 SSE 20 0 0,0
14.10.2018 06:00:00 12,8 4,7 11,5 14,5 15,0 19 10 45 24 SSE 20 0 0,0
14.10.2018 05:00:00 12,9 5,8 11,6 14,6 15,0 22 12 42 23 SSE 20 0 0,0
14.10.2018 04:00:00 13,2 7,6 12,1 14,6 14,9 17 9 36 20 SSE 20 0 0,0

tt = Température de l'air
td = dewpoint
tt 5cm = Température de l'air 5cm
tt -20cm = Température de l'air -20cm
tt -100cm = Température de l'air -100cm
ff = Vitesse du vent
fx = gusts
dd = Direction du vent
vv = visibility
sd = Ensoleillement
rr = Quantités de précipitations

stations d'obs. à proximité